sensor_id;sensor_type;location;lat;lon;timestamp;temperature;humidity
46440;DHT22;32138;50.966;6.968;2022-12-08T00:00:51;8.20;92.40
46440;DHT22;32138;50.966;6.968;2022-12-08T00:01:52;8.00;92.10
46440;DHT22;32138;50.966;6.968;2022-12-08T00:02:52;8.00;92.50
46440;DHT22;32138;50.966;6.968;2022-12-08T00:03:54;8.10;92.60
46440;DHT22;32138;50.966;6.968;2022-12-08T00:04:55;8.10;92.50
46440;DHT22;32138;50.966;6.968;2022-12-08T00:07:44;8.20;92.50
46440;DHT22;32138;50.966;6.968;2022-12-08T00:09:03;8.20;92.40
46440;DHT22;32138;50.966;6.968;2022-12-08T00:10:22;8.10;92.40
46440;DHT22;32138;50.966;6.968;2022-12-08T00:11:23;8.10;92.50
46440;DHT22;32138;50.966;6.968;2022-12-08T00:12:23;8.10;92.40
46440;DHT22;32138;50.966;6.968;2022-12-08T00:13:24;8.10;92.40
46440;DHT22;32138;50.966;6.968;2022-12-08T00:14:33;8.20;92.40
46440;DHT22;32138;50.966;6.968;2022-12-08T00:15:35;8.20;92.30
46440;DHT22;32138;50.966;6.968;2022-12-08T00:16:36;8.20;92.30
46440;DHT22;32138;50.966;6.968;2022-12-08T00:17:37;8.20;92.40
46440;DHT22;32138;50.966;6.968;2022-12-08T00:18:37;8.20;92.50
46440;DHT22;32138;50.966;6.968;2022-12-08T00:19:39;8.20;92.60
46440;DHT22;32138;50.966;6.968;2022-12-08T00:20:40;8.10;92.60
46440;DHT22;32138;50.966;6.968;2022-12-08T00:21:41;8.10;92.70
46440;DHT22;32138;50.966;6.968;2022-12-08T00:22:42;8.10;92.40
46440;DHT22;32138;50.966;6.968;2022-12-08T00:23:42;8.20;92.50
46440;DHT22;32138;50.966;6.968;2022-12-08T00:24:44;8.20;92.50
46440;DHT22;32138;50.966;6.968;2022-12-08T00:25:45;8.20;92.40
46440;DHT22;32138;50.966;6.968;2022-12-08T00:26:46;8.20;92.30
46440;DHT22;32138;50.966;6.968;2022-12-08T00:27:47;8.20;92.20
46440;DHT22;32138;50.966;6.968;2022-12-08T00:28:48;8.20;92.20
46440;DHT22;32138;50.966;6.968;2022-12-08T00:29:49;8.30;92.20
46440;DHT22;32138;50.966;6.968;2022-12-08T00:30:50;8.30;92.20
46440;DHT22;32138;50.966;6.968;2022-12-08T00:31:50;8.20;92.40
46440;DHT22;32138;50.966;6.968;2022-12-08T00:32:51;8.20;92.40
46440;DHT22;32138;50.966;6.968;2022-12-08T00:33:52;8.20;92.40
46440;DHT22;32138;50.966;6.968;2022-12-08T00:34:52;8.20;92.40
46440;DHT22;32138;50.966;6.968;2022-12-08T00:35:53;8.30;92.30
46440;DHT22;32138;50.966;6.968;2022-12-08T00:36:54;8.30;92.10
46440;DHT22;32138;50.966;6.968;2022-12-08T00:37:55;8.00;92.20
46440;DHT22;32138;50.966;6.968;2022-12-08T00:38:56;7.90;92.70
46440;DHT22;32138;50.966;6.968;2022-12-08T00:39:57;7.90;92.60
46440;DHT22;32138;50.966;6.968;2022-12-08T00:40:58;7.90;92.60
46440;DHT22;32138;50.966;6.968;2022-12-08T00:41:58;7.90;92.70
46440;DHT22;32138;50.966;6.968;2022-12-08T00:43:12;8.00;92.50
46440;DHT22;32138;50.966;6.968;2022-12-08T00:44:15;8.10;92.60
46440;DHT22;32138;50.966;6.968;2022-12-08T00:45:18;8.10;92.50
46440;DHT22;32138;50.966;6.968;2022-12-08T00:46:18;8.00;92.70
46440;DHT22;32138;50.966;6.968;2022-12-08T00:47:19;8.00;92.60
46440;DHT22;32138;50.966;6.968;2022-12-08T00:48:20;8.00;92.60
46440;DHT22;32138;50.966;6.968;2022-12-08T00:49:21;8.00;92.50
46440;DHT22;32138;50.966;6.968;2022-12-08T00:50:21;8.00;92.70
46440;DHT22;32138;50.966;6.968;2022-12-08T00:51:22;8.00;92.60
46440;DHT22;32138;50.966;6.968;2022-12-08T00:52:23;8.00;92.60
46440;DHT22;32138;50.966;6.968;2022-12-08T00:53:24;8.10;92.50
46440;DHT22;32138;50.966;6.968;2022-12-08T00:54:24;8.10;92.40
46440;DHT22;32138;50.966;6.968;2022-12-08T00:55:25;8.00;92.50
46440;DHT22;32138;50.966;6.968;2022-12-08T00:56:26;8.00;92.50
46440;DHT22;32138;50.966;6.968;2022-12-08T00:57:27;8.10;92.50
46440;DHT22;32138;50.966;6.968;2022-12-08T00:58:27;8.10;92.50
46440;DHT22;32138;50.966;6.968;2022-12-08T00:59:28;8.00;92.30
46440;DHT22;32138;50.966;6.968;2022-12-08T01:00:29;8.00;92.60
46440;DHT22;32138;50.966;6.968;2022-12-08T01:01:30;8.00;92.60
46440;DHT22;32138;50.966;6.968;2022-12-08T01:02:30;8.10;92.50
46440;DHT22;32138;50.966;6.968;2022-12-08T01:03:34;8.10;92.50
46440;DHT22;32138;50.966;6.968;2022-12-08T01:04:35;8.10;92.40
46440;DHT22;32138;50.966;6.968;2022-12-08T01:05:36;8.20;92.40
46440;DHT22;32138;50.966;6.968;2022-12-08T01:06:37;8.20;92.40
46440;DHT22;32138;50.966;6.968;2022-12-08T01:07:38;8.20;92.30
46440;DHT22;32138;50.966;6.968;2022-12-08T01:08:39;8.20;92.20
46440;DHT22;32138;50.966;6.968;2022-12-08T01:09:40;8.00;92.30
46440;DHT22;32138;50.966;6.968;2022-12-08T01:10:41;8.00;92.50
46440;DHT22;32138;50.966;6.968;2022-12-08T01:11:42;8.10;92.50
46440;DHT22;32138;50.966;6.968;2022-12-08T01:12:43;8.00;92.40
46440;DHT22;32138;50.966;6.968;2022-12-08T01:13:45;8.00;92.50
46440;DHT22;32138;50.966;6.968;2022-12-08T01:14:46;8.10;92.50
46440;DHT22;32138;50.966;6.968;2022-12-08T01:15:47;8.20;92.40
46440;DHT22;32138;50.966;6.968;2022-12-08T01:16:47;8.10;92.30
46440;DHT22;32138;50.966;6.968;2022-12-08T01:17:48;8.00;92.50
46440;DHT22;32138;50.966;6.968;2022-12-08T01:18:49;7.90;92.50
46440;DHT22;32138;50.966;6.968;2022-12-08T01:19:50;8.00;92.80
46440;DHT22;32138;50.966;6.968;2022-12-08T01:20:50;7.50;93.30
46440;DHT22;32138;50.966;6.968;2022-12-08T01:21:51;7.50;93.40
46440;DHT22;32138;50.966;6.968;2022-12-08T01:22:52;7.60;93.10
46440;DHT22;32138;50.966;6.968;2022-12-08T01:23:53;7.70;93.30
46440;DHT22;32138;50.966;6.968;2022-12-08T01:24:54;7.80;92.90
46440;DHT22;32138;50.966;6.968;2022-12-08T01:25:54;7.80;92.80
46440;DHT22;32138;50.966;6.968;2022-12-08T01:26:55;7.80;92.80
46440;DHT22;32138;50.966;6.968;2022-12-08T01:27:56;7.80;92.80
46440;DHT22;32138;50.966;6.968;2022-12-08T01:28:56;7.80;92.80
46440;DHT22;32138;50.966;6.968;2022-12-08T01:29:57;7.80;93.20
46440;DHT22;32138;50.966;6.968;2022-12-08T01:30:59;7.80;92.80
46440;DHT22;32138;50.966;6.968;2022-12-08T01:32:00;7.70;93.00
46440;DHT22;32138;50.966;6.968;2022-12-08T01:33:01;7.70;93.00
46440;DHT22;32138;50.966;6.968;2022-12-08T01:34:02;7.60;93.10
46440;DHT22;32138;50.966;6.968;2022-12-08T01:35:03;7.60;93.10
46440;DHT22;32138;50.966;6.968;2022-12-08T01:36:04;7.70;92.90
46440;DHT22;32138;50.966;6.968;2022-12-08T01:37:05;7.70;93.10
46440;DHT22;32138;50.966;6.968;2022-12-08T01:38:06;7.70;92.90
46440;DHT22;32138;50.966;6.968;2022-12-08T01:39:12;7.80;92.80
46440;DHT22;32138;50.966;6.968;2022-12-08T01:40:15;7.90;92.70
46440;DHT22;32138;50.966;6.968;2022-12-08T01:41:19;7.80;92.70
46440;DHT22;32138;50.966;6.968;2022-12-08T01:42:22;7.80;92.70
46440;DHT22;32138;50.966;6.968;2022-12-08T01:43:24;7.90;92.80
46440;DHT22;32138;50.966;6.968;2022-12-08T01:45:28;7.80;92.60
46440;DHT22;32138;50.966;6.968;2022-12-08T01:46:31;7.80;92.50
46440;DHT22;32138;50.966;6.968;2022-12-08T01:47:37;7.70;92.90
46440;DHT22;32138;50.966;6.968;2022-12-08T01:48:41;7.70;92.70
46440;DHT22;32138;50.966;6.968;2022-12-08T01:49:42;7.70;93.00
46440;DHT22;32138;50.966;6.968;2022-12-08T01:50:43;7.80;92.60
46440;DHT22;32138;50.966;6.968;2022-12-08T01:53:07;7.90;92.40
46440;DHT22;32138;50.966;6.968;2022-12-08T01:54:10;7.80;92.50
46440;DHT22;32138;50.966;6.968;2022-12-08T01:58:12;7.60;93.10
46440;DHT22;32138;50.966;6.968;2022-12-08T01:59:17;7.70;92.90
46440;DHT22;32138;50.966;6.968;2022-12-08T02:00:19;7.80;93.10
46440;DHT22;32138;50.966;6.968;2022-12-08T02:01:21;7.90;92.60
46440;DHT22;32138;50.966;6.968;2022-12-08T02:02:24;8.00;92.60
46440;DHT22;32138;50.966;6.968;2022-12-08T02:03:30;8.00;92.50
46440;DHT22;32138;50.966;6.968;2022-12-08T02:04:39;8.00;92.50
46440;DHT22;32138;50.966;6.968;2022-12-08T02:05:40;8.00;92.50
46440;DHT22;32138;50.966;6.968;2022-12-08T02:06:42;8.00;92.50
46440;DHT22;32138;50.966;6.968;2022-12-08T02:07:45;8.00;92.40
46440;DHT22;32138;50.966;6.968;2022-12-08T02:08:47;8.00;92.50
46440;DHT22;32138;50.966;6.968;2022-12-08T02:09:49;8.00;92.40
46440;DHT22;32138;50.966;6.968;2022-12-08T02:10:51;8.00;92.50
46440;DHT22;32138;50.966;6.968;2022-12-08T02:11:53;7.70;92.70
46440;DHT22;32138;50.966;6.968;2022-12-08T02:12:57;7.70;92.80
46440;DHT22;32138;50.966;6.968;2022-12-08T02:13:59;7.70;93.00
46440;DHT22;32138;50.966;6.968;2022-12-08T02:15:03;7.80;92.90
46440;DHT22;32138;50.966;6.968;2022-12-08T02:18:01;7.70;92.60
46440;DHT22;32138;50.966;6.968;2022-12-08T02:21:21;7.80;92.80
46440;DHT22;32138;50.966;6.968;2022-12-08T02:22:39;7.90;92.60
46440;DHT22;32138;50.966;6.968;2022-12-08T02:31:42;7.80;92.80
46440;DHT22;32138;50.966;6.968;2022-12-08T02:36:01;7.70;92.80
46440;DHT22;32138;50.966;6.968;2022-12-08T02:37:14;7.60;92.90
46440;DHT22;32138;50.966;6.968;2022-12-08T02:39:59;7.90;92.40
46440;DHT22;32138;50.966;6.968;2022-12-08T02:42:37;7.90;92.20
46440;DHT22;32138;50.966;6.968;2022-12-08T02:43:57;7.90;92.30
46440;DHT22;32138;50.966;6.968;2022-12-08T02:45:13;7.90;92.30
46440;DHT22;32138;50.966;6.968;2022-12-08T02:46:22;7.90;92.30
46440;DHT22;32138;50.966;6.968;2022-12-08T02:47:27;7.90;92.30
46440;DHT22;32138;50.966;6.968;2022-12-08T02:48:31;7.90;92.20
46440;DHT22;32138;50.966;6.968;2022-12-08T02:49:34;7.90;92.10
46440;DHT22;32138;50.966;6.968;2022-12-08T02:50:35;7.80;92.30
46440;DHT22;32138;50.966;6.968;2022-12-08T02:51:36;7.80;92.30
46440;DHT22;32138;50.966;6.968;2022-12-08T02:52:39;7.90;92.30
46440;DHT22;32138;50.966;6.968;2022-12-08T02:53:41;8.00;92.20
46440;DHT22;32138;50.966;6.968;2022-12-08T02:54:49;7.90;92.20
46440;DHT22;32138;50.966;6.968;2022-12-08T02:58:39;8.00;92.30
46440;DHT22;32138;50.966;6.968;2022-12-08T03:01:22;8.00;92.30
46440;DHT22;32138;50.966;6.968;2022-12-08T03:06:42;7.70;92.70
46440;DHT22;32138;50.966;6.968;2022-12-08T03:08:01;7.80;92.60
46440;DHT22;32138;50.966;6.968;2022-12-08T03:09:09;7.60;92.80
46440;DHT22;32138;50.966;6.968;2022-12-08T03:10:46;7.60;92.90
46440;DHT22;32138;50.966;6.968;2022-12-08T03:12:16;7.60;92.60
46440;DHT22;32138;50.966;6.968;2022-12-08T03:13:23;7.40;93.00
46440;DHT22;32138;50.966;6.968;2022-12-08T03:14:26;7.60;93.00
46440;DHT22;32138;50.966;6.968;2022-12-08T03:15:30;7.60;92.90
46440;DHT22;32138;50.966;6.968;2022-12-08T03:16:33;7.60;92.90
46440;DHT22;32138;50.966;6.968;2022-12-08T03:17:36;7.50;92.90
46440;DHT22;32138;50.966;6.968;2022-12-08T03:18:44;7.40;93.20
46440;DHT22;32138;50.966;6.968;2022-12-08T03:19:48;7.50;93.10
46440;DHT22;32138;50.966;6.968;2022-12-08T03:20:50;7.70;92.90
46440;DHT22;32138;50.966;6.968;2022-12-08T03:21:53;7.80;92.80
46440;DHT22;32138;50.966;6.968;2022-12-08T03:23:05;7.70;92.70
46440;DHT22;32138;50.966;6.968;2022-12-08T03:24:09;7.70;92.80
46440;DHT22;32138;50.966;6.968;2022-12-08T03:25:12;7.70;92.70
46440;DHT22;32138;50.966;6.968;2022-12-08T03:26:33;7.70;92.60
46440;DHT22;32138;50.966;6.968;2022-12-08T03:27:38;7.60;92.60
46440;DHT22;32138;50.966;6.968;2022-12-08T03:28:39;7.60;92.70
46440;DHT22;32138;50.966;6.968;2022-12-08T03:29:40;7.60;92.90
46440;DHT22;32138;50.966;6.968;2022-12-08T03:30:42;7.50;92.90
46440;DHT22;32138;50.966;6.968;2022-12-08T03:31:52;7.30;93.30
46440;DHT22;32138;50.966;6.968;2022-12-08T03:32:55;7.40;93.10
46440;DHT22;32138;50.966;6.968;2022-12-08T03:34:02;7.50;93.10
46440;DHT22;32138;50.966;6.968;2022-12-08T03:35:15;7.60;92.80
46440;DHT22;32138;50.966;6.968;2022-12-08T03:36:18;7.50;92.60
46440;DHT22;32138;50.966;6.968;2022-12-08T03:37:19;7.40;93.10
46440;DHT22;32138;50.966;6.968;2022-12-08T03:38:21;7.40;93.10
46440;DHT22;32138;50.966;6.968;2022-12-08T03:39:22;7.60;92.90
46440;DHT22;32138;50.966;6.968;2022-12-08T03:40:23;7.70;92.80
46440;DHT22;32138;50.966;6.968;2022-12-08T03:41:24;7.70;92.60
46440;DHT22;32138;50.966;6.968;2022-12-08T03:42:25;7.70;92.50
46440;DHT22;32138;50.966;6.968;2022-12-08T03:43:25;7.70;92.80
46440;DHT22;32138;50.966;6.968;2022-12-08T03:44:26;7.80;92.50
46440;DHT22;32138;50.966;6.968;2022-12-08T03:45:27;7.80;92.50
46440;DHT22;32138;50.966;6.968;2022-12-08T03:46:29;7.80;92.60
46440;DHT22;32138;50.966;6.968;2022-12-08T03:47:30;7.70;92.60
46440;DHT22;32138;50.966;6.968;2022-12-08T03:48:31;7.70;92.80
46440;DHT22;32138;50.966;6.968;2022-12-08T03:49:32;7.80;92.70
46440;DHT22;32138;50.966;6.968;2022-12-08T03:50:32;7.60;92.60
46440;DHT22;32138;50.966;6.968;2022-12-08T03:51:33;7.60;92.80
46440;DHT22;32138;50.966;6.968;2022-12-08T03:52:34;7.60;92.90
46440;DHT22;32138;50.966;6.968;2022-12-08T03:53:35;7.50;92.90
46440;DHT22;32138;50.966;6.968;2022-12-08T03:54:35;7.60;93.00
46440;DHT22;32138;50.966;6.968;2022-12-08T03:55:36;7.60;92.90
46440;DHT22;32138;50.966;6.968;2022-12-08T03:56:38;7.70;92.80
46440;DHT22;32138;50.966;6.968;2022-12-08T03:57:39;7.60;92.80
46440;DHT22;32138;50.966;6.968;2022-12-08T03:58:39;7.70;92.70
46440;DHT22;32138;50.966;6.968;2022-12-08T03:59:41;7.70;92.70
46440;DHT22;32138;50.966;6.968;2022-12-08T04:00:41;7.80;92.70
46440;DHT22;32138;50.966;6.968;2022-12-08T04:01:42;7.80;92.70
46440;DHT22;32138;50.966;6.968;2022-12-08T04:02:43;7.80;92.60
46440;DHT22;32138;50.966;6.968;2022-12-08T04:03:44;7.60;92.90
46440;DHT22;32138;50.966;6.968;2022-12-08T04:04:44;7.60;92.90
46440;DHT22;32138;50.966;6.968;2022-12-08T04:05:45;7.60;92.90
46440;DHT22;32138;50.966;6.968;2022-12-08T04:06:46;7.70;92.80
46440;DHT22;32138;50.966;6.968;2022-12-08T04:07:47;7.80;92.70
46440;DHT22;32138;50.966;6.968;2022-12-08T04:08:48;7.70;92.70
46440;DHT22;32138;50.966;6.968;2022-12-08T04:09:49;7.70;92.70
46440;DHT22;32138;50.966;6.968;2022-12-08T04:10:50;7.80;92.60
46440;DHT22;32138;50.966;6.968;2022-12-08T04:11:51;7.80;92.70
46440;DHT22;32138;50.966;6.968;2022-12-08T04:12:51;7.90;92.60
46440;DHT22;32138;50.966;6.968;2022-12-08T04:13:52;7.90;92.60
46440;DHT22;32138;50.966;6.968;2022-12-08T04:14:53;7.70;92.70
46440;DHT22;32138;50.966;6.968;2022-12-08T04:15:53;7.80;92.70
46440;DHT22;32138;50.966;6.968;2022-12-08T04:16:54;7.80;92.60
46440;DHT22;32138;50.966;6.968;2022-12-08T04:17:55;7.90;92.50
46440;DHT22;32138;50.966;6.968;2022-12-08T04:18:56;7.90;92.60
46440;DHT22;32138;50.966;6.968;2022-12-08T04:19:56;7.80;92.70
46440;DHT22;32138;50.966;6.968;2022-12-08T04:20:57;7.90;92.80
46440;DHT22;32138;50.966;6.968;2022-12-08T04:21:58;7.90;92.60
46440;DHT22;32138;50.966;6.968;2022-12-08T04:22:59;7.90;92.60
46440;DHT22;32138;50.966;6.968;2022-12-08T04:23:59;7.90;92.60
46440;DHT22;32138;50.966;6.968;2022-12-08T04:25:00;7.90;92.70
46440;DHT22;32138;50.966;6.968;2022-12-08T04:26:01;7.80;92.80
46440;DHT22;32138;50.966;6.968;2022-12-08T04:27:02;7.80;92.90
46440;DHT22;32138;50.966;6.968;2022-12-08T04:28:03;7.90;92.90
46440;DHT22;32138;50.966;6.968;2022-12-08T04:29:04;7.60;93.10
46440;DHT22;32138;50.966;6.968;2022-12-08T04:30:06;7.60;93.40
46440;DHT22;32138;50.966;6.968;2022-12-08T04:31:07;7.60;93.50
46440;DHT22;32138;50.966;6.968;2022-12-08T04:32:08;7.60;93.40
46440;DHT22;32138;50.966;6.968;2022-12-08T04:33:08;7.70;93.50
46440;DHT22;32138;50.966;6.968;2022-12-08T04:34:09;7.60;93.30
46440;DHT22;32138;50.966;6.968;2022-12-08T04:35:10;7.50;93.50
46440;DHT22;32138;50.966;6.968;2022-12-08T04:36:11;7.60;93.50
46440;DHT22;32138;50.966;6.968;2022-12-08T04:37:11;7.70;93.30
46440;DHT22;32138;50.966;6.968;2022-12-08T04:38:13;7.70;93.30
46440;DHT22;32138;50.966;6.968;2022-12-08T04:39:14;7.80;93.40
46440;DHT22;32138;50.966;6.968;2022-12-08T04:40:14;7.90;93.30
46440;DHT22;32138;50.966;6.968;2022-12-08T04:41:15;7.80;93.30
46440;DHT22;32138;50.966;6.968;2022-12-08T04:42:16;7.90;93.40
46440;DHT22;32138;50.966;6.968;2022-12-08T04:43:17;7.70;93.30
46440;DHT22;32138;50.966;6.968;2022-12-08T04:44:17;7.70;93.40
46440;DHT22;32138;50.966;6.968;2022-12-08T04:45:18;7.60;93.70
46440;DHT22;32138;50.966;6.968;2022-12-08T04:46:19;7.70;93.60
46440;DHT22;32138;50.966;6.968;2022-12-08T04:47:19;7.80;93.60
46440;DHT22;32138;50.966;6.968;2022-12-08T04:48:21;7.80;93.60
46440;DHT22;32138;50.966;6.968;2022-12-08T04:49:22;7.70;93.50
46440;DHT22;32138;50.966;6.968;2022-12-08T04:50:23;7.60;93.60
46440;DHT22;32138;50.966;6.968;2022-12-08T04:51:24;7.70;93.70
46440;DHT22;32138;50.966;6.968;2022-12-08T04:52:26;7.80;93.60
46440;DHT22;32138;50.966;6.968;2022-12-08T04:53:27;7.80;93.60
46440;DHT22;32138;50.966;6.968;2022-12-08T04:54:28;7.70;93.70
46440;DHT22;32138;50.966;6.968;2022-12-08T04:55:28;7.70;93.60
46440;DHT22;32138;50.966;6.968;2022-12-08T04:56:29;7.60;93.90
46440;DHT22;32138;50.966;6.968;2022-12-08T04:57:30;7.60;94.00
46440;DHT22;32138;50.966;6.968;2022-12-08T04:58:30;7.70;93.90
46440;DHT22;32138;50.966;6.968;2022-12-08T04:59:31;7.70;93.80
46440;DHT22;32138;50.966;6.968;2022-12-08T05:00:32;7.50;94.00
46440;DHT22;32138;50.966;6.968;2022-12-08T05:01:33;7.60;94.10
46440;DHT22;32138;50.966;6.968;2022-12-08T05:02:34;7.70;93.90
46440;DHT22;32138;50.966;6.968;2022-12-08T05:03:35;7.70;93.80
46440;DHT22;32138;50.966;6.968;2022-12-08T05:04:36;7.70;93.80
46440;DHT22;32138;50.966;6.968;2022-12-08T05:05:37;7.50;93.50
46440;DHT22;32138;50.966;6.968;2022-12-08T05:06:37;7.30;94.20
46440;DHT22;32138;50.966;6.968;2022-12-08T05:07:38;7.40;94.30
46440;DHT22;32138;50.966;6.968;2022-12-08T05:08:39;7.40;94.30
46440;DHT22;32138;50.966;6.968;2022-12-08T05:09:41;7.30;94.30
46440;DHT22;32138;50.966;6.968;2022-12-08T05:10:41;7.40;94.30
46440;DHT22;32138;50.966;6.968;2022-12-08T05:11:42;7.40;94.30
46440;DHT22;32138;50.966;6.968;2022-12-08T05:12:43;7.50;94.50
46440;DHT22;32138;50.966;6.968;2022-12-08T05:13:44;7.50;94.20
46440;DHT22;32138;50.966;6.968;2022-12-08T05:14:46;7.20;94.40
46440;DHT22;32138;50.966;6.968;2022-12-08T05:15:47;7.00;95.00
46440;DHT22;32138;50.966;6.968;2022-12-08T05:16:48;7.20;94.60
46440;DHT22;32138;50.966;6.968;2022-12-08T05:17:49;7.40;94.40
46440;DHT22;32138;50.966;6.968;2022-12-08T05:18:50;7.50;94.20
46440;DHT22;32138;50.966;6.968;2022-12-08T05:19:50;7.60;94.30
46440;DHT22;32138;50.966;6.968;2022-12-08T05:20:51;7.70;93.90
46440;DHT22;32138;50.966;6.968;2022-12-08T05:21:52;7.70;93.90
46440;DHT22;32138;50.966;6.968;2022-12-08T05:22:53;7.70;93.80
46440;DHT22;32138;50.966;6.968;2022-12-08T05:23:53;7.60;93.90
46440;DHT22;32138;50.966;6.968;2022-12-08T05:24:54;7.60;93.90
46440;DHT22;32138;50.966;6.968;2022-12-08T05:25:55;7.50;93.90
46440;DHT22;32138;50.966;6.968;2022-12-08T05:26:55;7.40;93.80
46440;DHT22;32138;50.966;6.968;2022-12-08T05:27:56;7.40;94.10
46440;DHT22;32138;50.966;6.968;2022-12-08T05:28:57;7.40;94.10
46440;DHT22;32138;50.966;6.968;2022-12-08T05:29:58;7.50;94.00
46440;DHT22;32138;50.966;6.968;2022-12-08T05:30:59;7.50;93.90
46440;DHT22;32138;50.966;6.968;2022-12-08T05:31:59;7.50;93.90
46440;DHT22;32138;50.966;6.968;2022-12-08T05:33:00;7.50;93.90
46440;DHT22;32138;50.966;6.968;2022-12-08T05:34:01;7.30;94.00
46440;DHT22;32138;50.966;6.968;2022-12-08T05:35:02;7.40;94.10
46440;DHT22;32138;50.966;6.968;2022-12-08T05:36:03;7.40;94.00
46440;DHT22;32138;50.966;6.968;2022-12-08T05:37:03;7.50;94.00
46440;DHT22;32138;50.966;6.968;2022-12-08T05:38:05;7.60;93.90
46440;DHT22;32138;50.966;6.968;2022-12-08T05:39:05;7.60;93.80
46440;DHT22;32138;50.966;6.968;2022-12-08T05:40:07;7.70;93.70
46440;DHT22;32138;50.966;6.968;2022-12-08T05:41:09;7.70;93.60
46440;DHT22;32138;50.966;6.968;2022-12-08T05:42:13;7.70;93.60
46440;DHT22;32138;50.966;6.968;2022-12-08T05:43:14;7.70;93.50
46440;DHT22;32138;50.966;6.968;2022-12-08T05:44:14;7.70;93.60
46440;DHT22;32138;50.966;6.968;2022-12-08T05:45:15;7.70;93.60
46440;DHT22;32138;50.966;6.968;2022-12-08T05:46:16;7.80;93.60
46440;DHT22;32138;50.966;6.968;2022-12-08T05:47:17;7.70;93.90
46440;DHT22;32138;50.966;6.968;2022-12-08T05:48:18;7.40;93.80
46440;DHT22;32138;50.966;6.968;2022-12-08T05:49:18;7.30;94.30
46440;DHT22;32138;50.966;6.968;2022-12-08T05:50:19;7.40;94.00
46440;DHT22;32138;50.966;6.968;2022-12-08T05:51:22;7.40;93.90
46440;DHT22;32138;50.966;6.968;2022-12-08T05:52:23;7.40;94.10
46440;DHT22;32138;50.966;6.968;2022-12-08T05:53:23;7.40;93.90
46440;DHT22;32138;50.966;6.968;2022-12-08T05:54:24;7.40;94.00
46440;DHT22;32138;50.966;6.968;2022-12-08T05:55:25;7.50;93.90
46440;DHT22;32138;50.966;6.968;2022-12-08T05:56:26;7.60;93.80
46440;DHT22;32138;50.966;6.968;2022-12-08T05:57:26;7.60;93.70
46440;DHT22;32138;50.966;6.968;2022-12-08T05:58:27;7.60;93.70
46440;DHT22;32138;50.966;6.968;2022-12-08T05:59:28;7.50;93.70
46440;DHT22;32138;50.966;6.968;2022-12-08T06:00:29;7.40;94.10
46440;DHT22;32138;50.966;6.968;2022-12-08T06:01:30;7.40;94.00
46440;DHT22;32138;50.966;6.968;2022-12-08T06:02:31;7.50;93.50
46440;DHT22;32138;50.966;6.968;2022-12-08T06:03:32;7.50;93.70
46440;DHT22;32138;50.966;6.968;2022-12-08T06:04:33;7.60;93.70
46440;DHT22;32138;50.966;6.968;2022-12-08T06:05:34;7.60;93.50
46440;DHT22;32138;50.966;6.968;2022-12-08T06:06:35;7.50;93.50
46440;DHT22;32138;50.966;6.968;2022-12-08T06:07:36;7.40;93.80
46440;DHT22;32138;50.966;6.968;2022-12-08T06:08:37;7.40;93.80
46440;DHT22;32138;50.966;6.968;2022-12-08T06:09:38;7.50;93.70
46440;DHT22;32138;50.966;6.968;2022-12-08T06:10:40;7.60;93.60
46440;DHT22;32138;50.966;6.968;2022-12-08T06:11:42;7.60;93.60
46440;DHT22;32138;50.966;6.968;2022-12-08T06:12:43;7.60;93.50
46440;DHT22;32138;50.966;6.968;2022-12-08T06:13:43;7.60;93.80
46440;DHT22;32138;50.966;6.968;2022-12-08T06:14:44;7.50;93.70
46440;DHT22;32138;50.966;6.968;2022-12-08T06:15:45;7.60;93.60
46440;DHT22;32138;50.966;6.968;2022-12-08T06:16:46;7.50;93.50
46440;DHT22;32138;50.966;6.968;2022-12-08T06:17:46;7.50;93.70
46440;DHT22;32138;50.966;6.968;2022-12-08T06:18:47;7.60;93.70
46440;DHT22;32138;50.966;6.968;2022-12-08T06:19:48;7.70;93.50
46440;DHT22;32138;50.966;6.968;2022-12-08T06:20:49;7.70;93.40
46440;DHT22;32138;50.966;6.968;2022-12-08T06:21:50;7.70;93.30
46440;DHT22;32138;50.966;6.968;2022-12-08T06:22:50;7.80;93.30
46440;DHT22;32138;50.966;6.968;2022-12-08T06:23:52;7.80;93.10
46440;DHT22;32138;50.966;6.968;2022-12-08T06:24:53;7.70;93.20
46440;DHT22;32138;50.966;6.968;2022-12-08T06:25:54;7.70;93.20
46440;DHT22;32138;50.966;6.968;2022-12-08T06:26:55;7.60;93.20
46440;DHT22;32138;50.966;6.968;2022-12-08T06:27:55;7.60;93.30
46440;DHT22;32138;50.966;6.968;2022-12-08T06:28:56;7.40;93.50
46440;DHT22;32138;50.966;6.968;2022-12-08T06:29:59;7.40;93.50
46440;DHT22;32138;50.966;6.968;2022-12-08T06:31:06;7.30;93.60
46440;DHT22;32138;50.966;6.968;2022-12-08T06:32:10;7.20;94.30
46440;DHT22;32138;50.966;6.968;2022-12-08T06:33:11;7.30;94.10
46440;DHT22;32138;50.966;6.968;2022-12-08T06:34:12;7.40;94.00
46440;DHT22;32138;50.966;6.968;2022-12-08T06:35:12;7.50;93.90
46440;DHT22;32138;50.966;6.968;2022-12-08T06:36:14;7.50;94.10
46440;DHT22;32138;50.966;6.968;2022-12-08T06:37:16;7.60;93.70
46440;DHT22;32138;50.966;6.968;2022-12-08T06:38:17;7.60;93.60
46440;DHT22;32138;50.966;6.968;2022-12-08T06:39:18;7.60;93.60
46440;DHT22;32138;50.966;6.968;2022-12-08T06:40:19;7.70;93.30
46440;DHT22;32138;50.966;6.968;2022-12-08T06:41:20;7.60;93.60
46440;DHT22;32138;50.966;6.968;2022-12-08T06:42:21;7.70;93.60
46440;DHT22;32138;50.966;6.968;2022-12-08T06:43:40;7.60;93.40
46440;DHT22;32138;50.966;6.968;2022-12-08T06:44:41;7.60;93.60
46440;DHT22;32138;50.966;6.968;2022-12-08T06:45:42;7.60;93.60
46440;DHT22;32138;50.966;6.968;2022-12-08T06:46:43;7.60;93.60
46440;DHT22;32138;50.966;6.968;2022-12-08T06:47:44;7.60;93.50
46440;DHT22;32138;50.966;6.968;2022-12-08T06:48:45;7.60;93.40
46440;DHT22;32138;50.966;6.968;2022-12-08T06:49:46;7.50;93.50
46440;DHT22;32138;50.966;6.968;2022-12-08T06:50:47;7.60;93.40
46440;DHT22;32138;50.966;6.968;2022-12-08T06:51:47;7.40;93.00
46440;DHT22;32138;50.966;6.968;2022-12-08T06:52:48;7.10;93.70
46440;DHT22;32138;50.966;6.968;2022-12-08T06:53:49;7.30;93.30
46440;DHT22;32138;50.966;6.968;2022-12-08T06:54:50;7.30;93.70
46440;DHT22;32138;50.966;6.968;2022-12-08T06:55:52;7.40;93.60
46440;DHT22;32138;50.966;6.968;2022-12-08T06:56:53;7.50;93.50
46440;DHT22;32138;50.966;6.968;2022-12-08T06:57:53;7.60;93.40
46440;DHT22;32138;50.966;6.968;2022-12-08T06:58:54;7.70;93.30
46440;DHT22;32138;50.966;6.968;2022-12-08T06:59:55;7.70;93.10
46440;DHT22;32138;50.966;6.968;2022-12-08T07:00:56;7.70;92.90
46440;DHT22;32138;50.966;6.968;2022-12-08T07:01:57;7.70;93.00
46440;DHT22;32138;50.966;6.968;2022-12-08T07:02:57;7.70;93.10
46440;DHT22;32138;50.966;6.968;2022-12-08T07:03:58;7.60;92.90
46440;DHT22;32138;50.966;6.968;2022-12-08T07:04:59;7.50;93.00
46440;DHT22;32138;50.966;6.968;2022-12-08T07:05:59;7.40;93.20
46440;DHT22;32138;50.966;6.968;2022-12-08T07:07:00;7.50;93.20
46440;DHT22;32138;50.966;6.968;2022-12-08T07:08:01;7.50;93.20
46440;DHT22;32138;50.966;6.968;2022-12-08T07:09:03;7.50;93.30
46440;DHT22;32138;50.966;6.968;2022-12-08T07:10:04;7.50;93.10
46440;DHT22;32138;50.966;6.968;2022-12-08T07:11:06;7.50;93.10
46440;DHT22;32138;50.966;6.968;2022-12-08T07:12:11;7.50;93.20
46440;DHT22;32138;50.966;6.968;2022-12-08T07:13:12;7.50;93.20